Time;durP1;ratioP1;P1;durP2;ratioP2;P2;SDS_P1;SDS_P2;PMS_P1;PMS_P2;Temp;Humidity;BMP_temperature;BMP_pressure;BME280_temperature;BME280_humidity;BME280_pressure;Samples;Min_cycle;Max_cycle;Signal;HPM_P1;HPM_P2
2023/07/13 00:00:10;;;;;;;2.70;1.85;;;;;;;18.06;76.54;100638.34;5032077;28;20519;-83
2023/07/13 00:02:36;;;;;;;3.45;1.33;;;;;;;18.05;76.82;100634.81;5031921;28;20029;-86
2023/07/13 00:05:04;;;;;;;2.13;1.70;;;;;;;18.05;77.42;100632.16;5030572;28;20537;-86
2023/07/13 00:07:31;;;;;;;1.45;1.35;;;;;;;18.05;76.88;100641.91;5050197;28;20056;-81
2023/07/13 00:09:58;;;;;;;2.67;1.13;;;;;;;18.07;76.94;100632.09;5027320;28;20061;-79
2023/07/13 00:12:35;;;;;;;5.25;1.35;;;;;;;18.04;76.77;100641.03;5037842;28;20064;-79
2023/07/13 00:15:06;;;;;;;3.13;1.25;;;;;;;17.95;77.47;100644.06;5032117;28;20382;-79
2023/07/13 00:17:32;;;;;;;1.80;1.40;;;;;;;17.88;77.74;100640.75;5049121;28;20119;-79
2023/07/13 00:19:59;;;;;;;1.67;1.20;;;;;;;17.84;78.14;100647.09;5032971;28;20041;-80
2023/07/13 00:22:26;;;;;;;1.25;1.25;;;;;;;17.84;78.46;100645.31;5042868;28;20036;-79
2023/07/13 00:24:55;;;;;;;4.65;1.73;;;;;;;17.90;78.08;100653.94;5060727;28;20035;-79
2023/07/13 00:27:23;;;;;;;2.88;1.20;;;;;;;17.97;77.82;100656.31;5037087;28;20037;-79
2023/07/13 00:29:49;;;;;;;2.90;1.48;;;;;;;18.03;78.13;100660.53;5054111;28;20040;-80
2023/07/13 00:32:16;;;;;;;2.90;1.27;;;;;;;18.07;78.01;100654.16;5020920;28;20494;-82
2023/07/13 00:34:43;;;;;;;1.67;1.15;;;;;;;18.09;78.36;100654.09;5053918;28;20095;-79
2023/07/13 00:37:11;;;;;;;4.68;1.30;;;;;;;18.06;78.90;100643.66;5053838;28;20032;-80
2023/07/13 00:39:37;;;;;;;4.15;1.60;;;;;;;18.00;79.44;100645.63;5073951;28;20039;-80
2023/07/13 00:42:05;;;;;;;3.28;1.85;;;;;;;17.95;79.73;100647.59;5040283;28;20040;-81
2023/07/13 00:44:31;;;;;;;1.70;1.30;;;;;;;17.88;80.36;100637.25;5017559;28;20111;-79
2023/07/13 00:46:58;;;;;;;1.25;1.10;;;;;;;17.85;80.90;100643.53;5048188;28;20051;-80
2023/07/13 00:49:28;;;;;;;2.20;2.00;;;;;;;17.79;81.08;100649.91;5070370;28;20826;-79
2023/07/13 00:52:03;;;;;;;2.90;1.50;;;;;;;17.76;81.42;100642.09;5053129;28;20047;-79
2023/07/13 00:54:36;;;;;;;2.33;1.55;;;;;;;17.69;81.94;100643.25;5017311;28;20079;-81
2023/07/13 00:57:07;;;;;;;2.13;1.63;;;;;;;17.64;82.18;100650.53;5017786;28;20036;-80
2023/07/13 00:59:36;;;;;;;1.77;1.63;;;;;;;17.59;83.28;100641.91;5016676;28;20280;-80
2023/07/13 01:02:04;;;;;;;3.65;2.15;;;;;;;17.52;83.16;100634.19;5034758;28;20042;-82
2023/07/13 01:04:31;;;;;;;1.92;1.05;;;;;;;17.51;83.08;100631.63;5038926;28;20647;-80
2023/07/13 01:06:58;;;;;;;2.78;1.55;;;;;;;17.44;83.28;100635.41;5033288;28;20043;-80
2023/07/13 01:09:28;;;;;;;5.22;2.03;;;;;;;17.30;84.09;100633.25;5073059;28;20041;-82
2023/07/13 01:11:54;;;;;;;1.63;1.52;;;;;;;17.19;84.41;100631.03;5036505;28;20090;-79
2023/07/13 01:14:21;;;;;;;4.30;2.17;;;;;;;17.10;85.03;100641.94;5036809;28;20041;-78
2023/07/13 01:16:49;;;;;;;5.90;2.15;;;;;;;17.04;85.53;100635.13;5029360;28;20045;-78
2023/07/13 01:19:37;;;;;;;5.82;1.73;;;;;;;17.01;85.87;100635.19;5047864;28;20513;-79
2023/07/13 01:22:16;;;;;;;3.08;2.13;;;;;;;16.90;85.85;100632.94;5036325;28;20057;-79
2023/07/13 01:24:46;;;;;;;2.45;1.55;;;;;;;16.83;86.50;100634.91;5017320;28;20626;-80
2023/07/13 01:27:17;;;;;;;2.13;1.80;;;;;;;16.76;86.91;100640.47;5034621;28;20036;-80
2023/07/13 01:29:47;;;;;;;2.17;1.90;;;;;;;16.74;87.97;100634.38;5055514;28;20482;-80
2023/07/13 01:32:22;;;;;;;1.48;1.38;;;;;;;16.72;87.04;100631.78;5036252;28;20119;-85
2023/07/13 01:34:49;;;;;;;2.78;1.67;;;;;;;16.66;87.73;100637.28;5019595;28;20033;-80
2023/07/13 01:37:16;;;;;;;4.15;1.98;;;;;;;16.63;88.07;100634.75;5053587;28;20036;-80
2023/07/13 01:39:42;;;;;;;2.90;1.70;;;;;;;16.59;88.03;100636.63;5048503;28;20098;-79
2023/07/13 01:42:09;;;;;;;3.00;1.60;;;;;;;16.55;88.05;100637.66;5055797;28;20041;-79
2023/07/13 01:44:35;;;;;;;4.13;2.00;;;;;;;16.51;88.68;100644.81;5055745;28;20044;-79
2023/07/13 01:47:02;;;;;;;3.50;1.58;;;;;;;16.47;89.27;100647.63;5039987;28;20040;-79
2023/07/13 01:49:29;;;;;;;3.20;1.83;;;;;;;16.45;89.50;100652.09;5033696;28;20044;-79
2023/07/13 01:51:55;;;;;;;3.50;1.90;;;;;;;16.41;89.14;100648.69;5018227;28;20388;-79
2023/07/13 01:54:22;;;;;;;2.58;2.38;;;;;;;16.36;89.29;100653.25;5035997;28;20365;-79
2023/07/13 01:56:48;;;;;;;2.40;2.20;;;;;;;16.36;89.22;100642.69;5015867;28;20258;-79
2023/07/13 01:59:15;;;;;;;2.10;1.92;;;;;;;16.34;89.29;100645.38;5036321;28;20048;-79
2023/07/13 02:01:41;;;;;;;2.75;2.17;;;;;;;16.35;89.15;100651.56;5035881;28;20068;-79
2023/07/13 02:04:08;;;;;;;3.58;1.75;;;;;;;16.36;89.46;100658.53;5044504;28;20038;-82
2023/07/13 02:06:34;;;;;;;5.65;1.90;;;;;;;16.34;88.96;100653.31;5014608;28;20041;-80
2023/07/13 02:09:01;;;;;;;3.50;2.00;;;;;;;16.34;89.05;100658.59;5022249;28;20037;-80
2023/07/13 02:11:32;;;;;;;2.00;1.75;;;;;;;16.29;88.92;100657.88;5052344;28;20042;-80
2023/07/13 02:14:00;;;;;;;1.60;1.33;;;;;;;16.25;89.03;100661.53;5038411;28;20029;-80
2023/07/13 02:16:26;;;;;;;2.22;1.58;;;;;;;16.23;88.81;100655.47;5023239;28;20041;-80
2023/07/13 02:18:54;;;;;;;3.45;1.67;;;;;;;16.24;88.89;100664.22;5038474;28;20056;-80
2023/07/13 02:21:20;;;;;;;2.90;1.40;;;;;;;16.21;88.67;100668.69;5037643;28;20108;-79
2023/07/13 02:23:47;;;;;;;9.38;2.78;;;;;;;16.16;89.12;100669.75;5054220;28;20048;-81
2023/07/13 02:26:14;;;;;;;3.78;1.55;;;;;;;16.11;89.48;100664.59;5050035;28;20048;-80
2023/07/13 02:28:40;;;;;;;1.25;1.23;;;;;;;16.12;89.28;100660.22;5033888;28;20039;-80
2023/07/13 02:33:59;;;;;;;3.03;1.33;;;;;;;16.07;89.15;100672.69;5034002;28;20167;-82
2023/07/13 02:36:25;;;;;;;3.40;1.17;;;;;;;16.02;89.06;100671.06;5015741;28;20407;-79
2023/07/13 02:38:51;;;;;;;2.80;1.50;;;;;;;16.00;89.57;100670.25;5032895;28;20116;-79
2023/07/13 02:41:18;;;;;;;2.10;1.67;;;;;;;15.98;89.51;100674.72;5038517;28;20045;-79
2023/07/13 02:43:47;;;;;;;2.55;1.70;;;;;;;15.95;89.31;100668.66;5037561;28;20033;-79
2023/07/13 02:46:15;;;;;;;5.13;2.08;;;;;;;15.92;89.13;100659.06;5034489;28;20041;-79
2023/07/13 02:48:41;;;;;;;3.53;1.90;;;;;;;15.94;89.16;100664.28;5048220;28;20044;-79
2023/07/13 02:51:08;;;;;;;1.85;1.15;;;;;;;15.93;88.91;100659.91;5035109;28;20037;-82
2023/07/13 02:53:36;;;;;;;3.75;1.85;;;;;;;15.90;88.70;100658.25;5034817;28;20041;-81
2023/07/13 02:56:04;;;;;;;3.97;1.73;;;;;;;15.87;88.57;100655.69;5034425;28;20475;-79
2023/07/13 02:58:31;;;;;;;2.97;2.05;;;;;;;15.88;88.37;100660.06;5037160;28;20040;-79
2023/07/13 03:00:58;;;;;;;3.97;1.70;;;;;;;15.90;88.26;100660.88;5034956;28;20144;-80
2023/07/13 03:03:25;;;;;;;3.97;1.20;;;;;;;15.93;87.94;100663.44;5016901;28;20107;-79
2023/07/13 03:06:02;;;;;;;2.08;1.75;;;;;;;15.92;87.95;100659.06;5069128;28;20106;-80
2023/07/13 03:08:28;;;;;;;2.10;1.60;;;;;;;15.93;87.81;100666.09;5043504;28;20040;-79
2023/07/13 03:11:10;;;;;;;2.05;1.73;;;;;;;15.97;87.36;100666.81;5036145;28;20116;-83
2023/07/13 03:13:38;;;;;;;3.97;1.50;;;;;;;15.98;87.23;100669.44;5028638;28;20044;-78
2023/07/13 03:16:06;;;;;;;4.05;1.85;;;;;;;16.00;87.39;100672.03;5034244;28;20041;-84
2023/07/13 03:18:33;;;;;;;4.63;1.50;;;;;;;16.01;87.21;100668.47;5031760;28;20064;-79
2023/07/13 03:21:00;;;;;;;2.10;1.42;;;;;;;15.98;87.48;100666.81;5054619;28;20148;-78
2023/07/13 03:23:26;;;;;;;4.05;2.17;;;;;;;15.97;87.26;100661.53;5031503;28;20041;-83
2023/07/13 03:26:07;;;;;;;2.53;1.33;;;;;;;15.88;87.42;100663.56;5032207;28;20659;-78
2023/07/13 03:28:33;;;;;;;5.72;1.55;;;;;;;15.83;87.47;100664.63;5050951;28;20117;-78
2023/07/13 03:31:10;;;;;;;2.38;1.50;;;;;;;15.81;87.52;100663.81;5034184;28;20083;-82
2023/07/13 03:33:37;;;;;;;3.67;1.23;;;;;;;15.83;87.08;100664.63;5038467;28;20036;-83
2023/07/13 03:36:08;;;;;;;4.57;1.67;;;;;;;15.81;87.46;100663.81;5032817;28;20132;-80
2023/07/13 03:38:36;;;;;;;3.55;2.13;;;;;;;15.80;87.41;100669.94;5036145;28;20037;-80
2023/07/13 03:41:03;;;;;;;3.63;1.90;;;;;;;15.77;87.27;100670.91;5048638;28;20033;-81
2023/07/13 03:43:29;;;;;;;1.77;1.63;;;;;;;15.80;87.03;100673.47;5034682;28;20045;-85
2023/07/13 03:45:56;;;;;;;4.97;1.70;;;;;;;15.83;86.98;100664.63;5035256;28;20048;-80
2023/07/13 03:48:23;;;;;;;2.53;1.20;;;;;;;15.87;86.70;100660.97;5046637;28;20471;-88
2023/07/13 03:50:50;;;;;;;1.60;1.40;;;;;;;15.99;86.42;100665.00;5041252;28;20048;-80
2023/07/13 03:53:19;;;;;;;1.65;1.50;;;;;;;16.13;85.71;100659.31;5057640;28;20044;-79
2023/07/13 03:55:49;;;;;;;3.47;1.83;;;;;;;16.29;84.83;100664.94;5052143;28;20044;-78
2023/07/13 03:58:33;;;;;;;10.82;4.20;;;;;;;16.44;83.96;100671.50;5046982;28;20055;-79
2023/07/13 04:01:02;;;;;;;3.47;1.80;;;;;;;16.53;83.41;100665.91;5037718;28;20091;-80
2023/07/13 04:03:29;;;;;;;2.45;1.40;;;;;;;16.63;82.91;100674.41;5038726;28;20464;-78
2023/07/13 04:06:06;;;;;;;1.88;1.17;;;;;;;16.66;82.74;100680.44;5037675;28;20128;-79
2023/07/13 04:08:37;;;;;;;2.20;1.88;;;;;;;16.68;82.67;100683.88;5021383;28;20135;-81
2023/07/13 04:11:05;;;;;;;1.52;1.10;;;;;;;16.73;82.51;100685.53;5034245;28;20090;-81
2023/07/13 04:13:35;;;;;;;2.97;2.08;;;;;;;16.79;82.25;100683.53;5041193;28;20097;-79
2023/07/13 04:16:03;;;;;;;8.95;1.75;;;;;;;16.78;82.13;100681.81;5027386;28;20487;-79
2023/07/13 04:18:30;;;;;;;1.55;1.17;;;;;;;16.81;82.04;100686.13;5041096;28;21294;-79
2023/07/13 04:20:57;;;;;;;1.50;1.40;;;;;;;16.80;82.05;100689.69;5052866;28;20113;-79
2023/07/13 04:23:23;;;;;;;3.08;1.73;;;;;;;16.79;82.00;100694.13;5053961;28;20158;-79
2023/07/13 04:25:53;;;;;;;2.75;1.55;;;;;;;16.80;81.63;100689.69;5039649;28;20036;-79
2023/07/13 04:28:24;;;;;;;3.70;1.88;;;;;;;16.73;81.98;100696.97;5041579;28;20045;-81
2023/07/13 04:30:51;;;;;;;5.68;1.77;;;;;;;16.68;82.17;100698.88;5051621;28;20696;-81
2023/07/13 04:33:22;;;;;;;1.80;1.35;;;;;;;16.55;82.43;100698.44;5041065;28;20033;-80
2023/07/13 04:35:54;;;;;;;4.13;2.15;;;;;;;16.48;83.12;100705.69;5021201;28;20079;-79
2023/07/13 04:38:22;;;;;;;3.35;1.40;;;;;;;16.46;83.47;100696.94;5042637;28;20508;-81
2023/07/13 04:40:48;;;;;;;2.90;1.50;;;;;;;16.41;83.56;100701.53;5037110;28;20037;-80
2023/07/13 04:43:15;;;;;;;4.68;1.20;;;;;;;16.35;83.95;100707.88;5049534;28;20041;-82
2023/07/13 04:45:42;;;;;;;1.48;1.25;;;;;;;16.37;84.10;100708.69;5069666;28;20029;-80
2023/07/13 04:48:08;;;;;;;3.78;1.98;;;;;;;16.44;84.19;100705.84;5051085;28;20164;-79
2023/07/13 04:50:38;;;;;;;2.83;1.20;;;;;;;16.47;83.92;100706.63;5039136;28;20041;-80
2023/07/13 04:53:05;;;;;;;2.80;1.42;;;;;;;16.51;84.19;100710.03;5059467;28;20045;-79
2023/07/13 04:55:35;;;;;;;3.42;1.52;;;;;;;16.61;83.47;100708.81;5036645;28;20039;-82
2023/07/13 04:58:03;;;;;;;3.83;1.52;;;;;;;16.65;83.41;100707.78;5034165;28;20707;-81
2023/07/13 05:00:30;;;;;;;7.00;1.80;;;;;;;16.73;82.51;100709.31;5036351;28;20049;-79
2023/07/13 05:02:59;;;;;;;5.88;1.90;;;;;;;16.77;82.27;100711.78;5038163;28;20037;-78
2023/07/13 05:05:27;;;;;;;3.78;1.98;;;;;;;16.78;81.75;100713.53;5058894;28;20037;-79
2023/07/13 05:07:54;;;;;;;4.22;1.50;;;;;;;16.82;81.80;100714.28;5019202;28;20607;-80
2023/07/13 05:10:24;;;;;;;2.40;1.40;;;;;;;16.86;81.42;100718.56;5040325;28;20094;-80
2023/07/13 05:12:52;;;;;;;4.95;1.48;;;;;;;16.90;81.03;100728.13;5036139;28;20048;-81
2023/07/13 05:15:21;;;;;;;4.30;1.60;;;;;;;17.00;80.72;100718.97;5036644;28;20494;-84
2023/07/13 05:17:51;;;;;;;6.68;2.00;;;;;;;17.16;80.27;100721.09;5044275;28;20037;-79
2023/07/13 05:20:20;;;;;;;3.65;1.35;;;;;;;17.35;79.02;100723.91;5036320;28;20049;-79
2023/07/13 05:22:47;;;;;;;1.70;1.42;;;;;;;17.46;77.93;100726.19;5028611;28;20096;-79
2023/07/13 05:25:15;;;;;;;5.82;1.48;;;;;;;17.50;77.61;100720.72;5034408;28;20484;-79
2023/07/13 05:27:45;;;;;;;10.32;1.65;;;;;;;17.59;77.07;100719.53;5055959;28;20724;-80
2023/07/13 05:30:15;;;;;;;5.40;1.63;;;;;;;17.57;76.64;100728.44;5051346;28;20032;-80
2023/07/13 05:32:42;;;;;;;4.60;1.38;;;;;;;17.41;76.73;100725.50;5037448;28;20040;-79
2023/07/13 05:35:09;;;;;;;8.82;1.70;;;;;;;17.32;77.20;100732.84;5036610;28;20041;-79
2023/07/13 05:37:36;;;;;;;4.95;1.77;;;;;;;17.34;77.18;100733.66;5036041;28;20033;-80
2023/07/13 05:40:03;;;;;;;9.57;1.40;;;;;;;17.26;77.58;100724.25;5057217;28;20039;-79
2023/07/13 05:42:31;;;;;;;7.18;2.65;;;;;;;17.30;77.64;100736.44;5059257;28;20095;-80
2023/07/13 05:44:58;;;;;;;6.47;1.70;;;;;;;17.29;77.76;100734.75;5026624;28;20471;-79
2023/07/13 05:47:24;;;;;;;4.22;1.65;;;;;;;17.31;78.04;100738.19;5042879;28;20803;-79
2023/07/13 05:49:50;;;;;;;6.88;1.98;;;;;;;17.30;78.21;100734.69;5054035;28;20033;-78
2023/07/13 05:52:17;;;;;;;5.50;1.85;;;;;;;17.30;78.34;100733.81;5055091;28;20053;-79
2023/07/13 05:54:43;;;;;;;8.07;2.10;;;;;;;17.27;78.74;100744.50;5036617;28;20164;-79
2023/07/13 05:57:10;;;;;;;4.32;1.80;;;;;;;17.23;78.86;100741.09;5054202;28;20035;-79
2023/07/13 05:59:36;;;;;;;8.68;2.03;;;;;;;17.22;79.06;100743.81;5037151;28;20573;-78
2023/07/13 06:02:03;;;;;;;8.25;1.60;;;;;;;17.27;79.09;100739.22;5036983;28;20041;-79
2023/07/13 06:04:29;;;;;;;9.02;1.80;;;;;;;17.33;78.91;100745.16;5036284;28;20057;-80
2023/07/13 06:06:56;;;;;;;8.45;2.17;;;;;;;17.38;78.57;100742.34;5036102;28;20055;-80
2023/07/13 06:09:22;;;;;;;5.38;1.65;;;;;;;17.44;78.63;100744.78;5035809;28;20052;-79
2023/07/13 06:11:49;;;;;;;5.47;2.38;;;;;;;17.55;77.35;100735.56;5036558;28;20052;-80
2023/07/13 06:14:15;;;;;;;3.20;1.65;;;;;;;17.63;76.54;100731.72;5002667;28;20133;-86
2023/07/13 06:16:42;;;;;;;6.93;2.00;;;;;;;17.69;75.77;100746.50;5033516;28;20048;-79
2023/07/13 06:19:08;;;;;;;6.18;1.92;;;;;;;17.76;74.46;100740.06;5053051;28;20053;-89
2023/07/13 06:21:36;;;;;;;10.98;1.88;;;;;;;17.78;73.42;100745.31;5037046;28;20471;-81
2023/07/13 06:24:03;;;;;;;3.28;2.20;;;;;;;17.82;72.87;100747.78;5038693;28;20116;-82
2023/07/13 06:26:29;;;;;;;6.72;1.90;;;;;;;17.88;72.71;100757.28;5041853;28;20036;-84
2023/07/13 06:28:56;;;;;;;6.13;2.13;;;;;;;17.93;72.70;100754.50;5038759;28;20040;-88
2023/07/13 06:31:22;;;;;;;4.57;1.75;;;;;;;18.09;72.10;100749.47;5035982;28;20037;-81
2023/07/13 06:33:49;;;;;;;4.57;2.00;;;;;;;18.22;70.64;100758.66;5047653;28;20479;-79
2023/07/13 06:36:16;;;;;;;9.10;2.50;;;;;;;18.35;69.86;100764.34;5021950;28;20064;-83
2023/07/13 06:38:42;;;;;;;5.32;2.35;;;;;;;18.48;69.51;100754.13;5037820;28;20033;-79
2023/07/13 06:41:09;;;;;;;7.60;2.03;;;;;;;18.71;67.86;100766.44;5034145;28;20495;-80
2023/07/13 06:43:35;;;;;;;3.30;1.75;;;;;;;18.71;67.82;100766.44;5037840;28;20040;-78
2023/07/13 06:46:02;;;;;;;3.25;2.03;;;;;;;18.83;67.18;100759.75;5052711;28;20040;-80
2023/07/13 06:48:29;;;;;;;7.20;2.47;;;;;;;18.82;67.79;100773.94;5036366;28;20851;-78
2023/07/13 06:50:56;;;;;;;7.90;2.08;;;;;;;18.82;67.62;100773.94;5037228;28;20037;-79
2023/07/13 06:53:23;;;;;;;6.97;1.80;;;;;;;18.75;68.17;100773.34;5036502;28;20045;-81
2023/07/13 06:55:50;;;;;;;2.90;1.52;;;;;;;18.71;68.00;100770.84;5041116;28;20043;-77
2023/07/13 06:58:18;;;;;;;4.68;1.90;;;;;;;18.56;68.27;100770.56;5034535;28;20076;-77
2023/07/13 07:00:45;;;;;;;5.80;1.80;;;;;;;18.47;68.00;100776.25;5020439;28;20037;-79
2023/07/13 07:03:12;;;;;;;1.63;1.52;;;;;;;18.48;68.03;100781.47;5030288;28;20048;-79
2023/07/13 07:05:39;;;;;;;5.95;1.98;;;;;;;18.44;66.91;100777.22;5033547;28;20056;-83
2023/07/13 07:08:06;;;;;;;7.03;1.70;;;;;;;18.57;69.89;100774.94;5017660;28;20159;-80
2023/07/13 07:10:32;;;;;;;2.90;1.63;;;;;;;19.45;65.20;100765.97;5027050;28;20037;-76
2023/07/13 07:13:03;;;;;;;6.28;1.42;;;;;;;19.95;62.69;100772.59;5048245;28;21812;-84
2023/07/13 07:15:47;;;;;;;7.35;1.98;;;;;;;19.86;59.73;100773.03;5053925;28;20032;-96
2023/07/13 07:20:46;;;;;;;5.10;1.80;;;;;;;19.38;61.74;100774.28;5097104;22;20064;-83
2023/07/13 07:23:14;;;;;;;2.17;1.00;;;;;;;19.26;61.72;100778.34;5062062;28;20121;-82
2023/07/13 07:25:41;;;;;;;3.50;1.27;;;;;;;19.50;60.66;100776.38;5047064;28;20040;-83
2023/07/13 07:28:09;;;;;;;5.10;1.60;;;;;;;19.91;58.34;100780.81;5067514;28;20038;-81
2023/07/13 07:30:36;;;;;;;5.72;1.60;;;;;;;20.05;57.20;100770.41;5048928;28;20056;-82
2023/07/13 07:33:02;;;;;;;6.28;1.25;;;;;;;19.82;58.38;100777.63;5070401;28;20132;-77
2023/07/13 07:35:29;;;;;;;5.45;1.23;;;;;;;19.68;59.06;100782.66;5062853;28;20037;-81
2023/07/13 07:37:55;;;;;;;4.72;2.03;;;;;;;19.45;60.22;100787.22;5064269;28;20550;-83
2023/07/13 07:40:22;;;;;;;2.78;1.15;;;;;;;19.56;60.20;100783.22;5055674;28;20536;-79
2023/07/13 07:42:48;;;;;;;5.70;1.42;;;;;;;19.50;59.90;100782.56;5074824;28;20041;-80
2023/07/13 07:45:15;;;;;;;4.47;1.55;;;;;;;19.42;60.33;100783.81;5041298;28;20056;-80
2023/07/13 07:47:41;;;;;;;4.57;1.60;;;;;;;19.58;60.21;100776.91;5052161;28;20501;-78
2023/07/13 07:50:08;;;;;;;4.18;1.90;;;;;;;20.06;58.35;100777.41;5037459;28;20048;-80
2023/07/13 07:52:35;;;;;;;4.57;1.48;;;;;;;20.30;57.72;100770.09;5043062;28;20049;-80
2023/07/13 07:55:01;;;;;;;3.42;1.30;;;;;;;20.66;56.20;100771.03;5050381;28;20043;-81
2023/07/13 07:57:28;;;;;;;3.88;1.13;;;;;;;21.03;54.62;100766.56;5038727;28;20048;-78
2023/07/13 07:59:54;;;;;;;4.57;1.45;;;;;;;20.79;55.47;100766.00;5050643;28;20044;-78
2023/07/13 08:02:21;;;;;;;5.93;1.38;;;;;;;20.65;56.26;100780.81;5046931;28;20028;-78
2023/07/13 08:04:47;;;;;;;5.32;1.15;;;;;;;20.98;54.99;100785.41;5059427;28;20038;-80
2023/07/13 08:07:14;;;;;;;5.30;1.38;;;;;;;21.38;54.38;100782.50;5056823;28;20076;-79
2023/07/13 08:09:40;;;;;;;2.83;1.15;;;;;;;21.69;53.07;100774.72;5052327;28;20041;-79
2023/07/13 08:12:07;;;;;;;3.30;1.73;;;;;;;21.59;52.80;100779.66;5040268;28;20040;-79
2023/07/13 08:14:34;;;;;;;3.75;1.00;;;;;;;21.43;53.40;100782.25;5052314;28;20751;-78
2023/07/13 08:17:00;;;;;;;2.92;1.00;;;;;;;21.79;53.24;100784.78;5047888;28;20131;-82
2023/07/13 08:19:27;;;;;;;5.72;1.77;;;;;;;22.16;51.37;100773.91;5044336;28;20063;-76
2023/07/13 08:21:53;;;;;;;7.47;1.20;;;;;;;22.29;50.81;100779.44;5030434;28;20051;-79
2023/07/13 08:24:24;;;;;;;3.45;1.15;;;;;;;22.19;51.27;100786.22;5055758;28;20574;-78
2023/07/13 08:26:52;;;;;;;5.60;1.40;;;;;;;22.02;51.87;100789.81;5050433;28;20120;-78
2023/07/13 08:29:19;;;;;;;5.15;1.58;;;;;;;21.67;52.60;100790.78;5049632;28;20037;-78
2023/07/13 08:31:45;;;;;;;5.43;1.77;;;;;;;21.82;52.13;100781.09;5044833;28;20037;-78
2023/07/13 08:34:12;;;;;;;3.63;1.40;;;;;;;22.02;51.58;100790.69;5030532;28;20037;-78
2023/07/13 08:36:38;;;;;;;2.35;0.85;;;;;;;22.10;51.20;100777.78;5046498;28;20036;-82
2023/07/13 08:39:06;;;;;;;2.97;1.20;;;;;;;21.87;52.20;100788.88;5044869;28;20036;-78
2023/07/13 08:41:34;;;;;;;2.00;1.30;;;;;;;21.80;52.93;100788.34;5050526;28;20773;-78
2023/07/13 08:44:03;;;;;;;4.15;1.70;;;;;;;21.73;53.28;100792.25;5056560;28;20728;-80
2023/07/13 08:46:37;;;;;;;3.65;1.73;;;;;;;21.41;54.36;100789.47;5056280;28;20472;-79
2023/07/13 08:49:16;;;;;;;5.10;1.38;;;;;;;22.13;52.75;100790.09;5048813;28;20040;-78
2023/07/13 08:51:51;;;;;;;3.80;1.33;;;;;;;22.91;50.17;100786.63;5049641;28;20604;-79
2023/07/13 08:54:22;;;;;;;17.88;2.47;;;;;;;23.78;47.83;100790.34;5046422;28;20041;-79
2023/07/13 08:56:52;;;;;;;6.18;1.30;;;;;;;24.72;46.02;100779.00;5045963;28;20040;-78
2023/07/13 08:59:23;;;;;;;3.08;1.10;;;;;;;25.45;43.33;100784.84;5039039;28;20122;-78
2023/07/13 09:02:33;;;;;;;2.63;1.33;;;;;;;25.32;43.60;100789.28;5042398;28;20056;-78
2023/07/13 09:05:15;;;;;;;6.68;1.55;;;;;;;25.15;44.36;100787.75;5053256;28;20065;-78
2023/07/13 09:08:16;;;;;;;5.38;1.42;;;;;;;25.39;43.79;100794.13;5048752;28;20751;-82
2023/07/13 09:10:50;;;;;;;3.92;1.15;;;;;;;24.23;45.11;100793.72;5045164;28;20037;-79
2023/07/13 09:13:38;;;;;;;3.72;0.85;;;;;;;23.24;47.60;100796.28;5044663;28;20045;-79
2023/07/13 09:16:05;;;;;;;3.50;1.40;;;;;;;22.90;48.96;100799.09;5057325;28;20119;-78
2023/07/13 09:18:41;;;;;;;4.45;1.45;;;;;;;22.80;49.43;100805.91;5055151;28;20044;-80
2023/07/13 09:21:25;;;;;;;3.33;1.02;;;;;;;22.27;50.86;100803.53;5056843;28;20045;-79
2023/07/13 09:23:56;;;;;;;3.83;1.75;;;;;;;23.41;48.42;100805.94;5044370;28;20045;-81
2023/07/13 09:26:25;;;;;;;3.45;1.30;;;;;;;25.29;43.88;100805.56;5056409;28;20067;-81
2023/07/13 09:29:13;;;;;;;5.07;1.30;;;;;;;25.59;42.65;100795.44;5051384;28;20549;-79
2023/07/13 09:31:48;;;;;;;4.00;1.38;;;;;;;25.37;42.75;100798.75;5051569;28;20136;-80
2023/07/13 09:34:14;;;;;;;2.72;0.93;;;;;;;26.21;41.24;100806.31;5057286;28;20049;-79
2023/07/13 09:36:41;;;;;;;2.05;1.27;;;;;;;26.79;39.96;100803.00;5058106;28;20486;-83
2023/07/13 09:39:41;;;;;;;5.40;1.77;;;;;;;26.19;40.74;100794.84;5057239;28;20037;-80
2023/07/13 09:42:17;;;;;;;3.40;1.08;;;;;;;25.37;41.93;100804.13;5027375;28;20052;-82
2023/07/13 09:44:54;;;;;;;9.63;2.33;;;;;;;25.01;43.26;100797.59;5057549;28;20447;-80
2023/07/13 09:47:30;;;;;;;6.85;2.28;;;;;;;25.48;42.07;100795.31;5039614;28;20045;-78
2023/07/13 09:50:03;;;;;;;5.55;1.50;;;;;;;25.43;41.22;100790.31;5048675;28;20045;-78
2023/07/13 09:52:51;;;;;;;3.75;1.40;;;;;;;26.06;40.62;100786.81;5054494;28;20037;-80
2023/07/13 09:55:26;;;;;;;2.55;0.90;;;;;;;25.07;42.06;100796.31;5050079;28;20041;-79
2023/07/13 09:57:53;;;;;;;6.38;1.02;;;;;;;24.44;43.27;100788.81;5051740;28;20051;-78
2023/07/13 10:00:27;;;;;;;2.22;1.20;;;;;;;23.98;44.30;100809.63;5044235;28;20041;-80
2023/07/13 10:03:21;;;;;;;2.72;1.08;;;;;;;23.48;46.20;100804.63;5048948;28;20041;-78
2023/07/13 10:05:50;;;;;;;4.90;1.25;;;;;;;24.07;44.57;100801.03;5045307;28;20698;-79
2023/07/13 10:08:30;;;;;;;4.25;1.58;;;;;;;25.71;41.49;100793.72;5043325;28;20041;-78
2023/07/13 10:11:22;;;;;;;1.98;1.05;;;;;;;26.45;38.30;100802.81;5053297;28;20032;-83
2023/07/13 10:13:56;;;;;;;7.35;1.65;;;;;;;25.41;40.90;100804.78;5062814;28;20538;-81
2023/07/13 10:16:25;;;;;;;4.15;1.58;;;;;;;25.57;41.68;100807.22;5050567;28;20045;-81
2023/07/13 10:19:25;;;;;;;5.35;1.20;;;;;;;27.07;38.31;100797.25;5042801;28;20037;-79
2023/07/13 10:21:59;;;;;;;3.60;1.05;;;;;;;27.97;35.61;100798.38;5023079;28;20041;-81
2023/07/13 10:24:32;;;;;;;4.95;0.93;;;;;;;27.24;36.41;100803.16;5037233;28;20037;-79
2023/07/13 10:27:08;;;;;;;3.35;1.30;;;;;;;25.66;39.46;100800.38;5041689;28;20037;-78
2023/07/13 10:29:41;;;;;;;5.45;1.25;;;;;;;26.09;39.08;100797.34;5043929;28;20047;-78
2023/07/13 10:32:12;;;;;;;0.85;0.85;;;;;;;25.98;39.58;100794.53;5052003;28;20029;-81
2023/07/13 10:34:44;;;;;;;3.38;1.17;;;;;;;26.04;39.87;100796.81;5046058;28;20064;-80
2023/07/13 10:37:21;;;;;;;2.20;1.02;;;;;;;28.36;35.92;100792.59;5048068;28;20057;-82
2023/07/13 10:39:49;;;;;;;2.65;1.40;;;;;;;29.85;34.36;100799.81;5049849;28;20094;-78
2023/07/13 10:42:28;;;;;;;2.53;1.10;;;;;;;29.63;32.92;100801.69;5042734;28;20048;-80
2023/07/13 10:44:54;;;;;;;1.77;0.70;;;;;;;29.48;33.22;100793.09;5039729;28;20053;-79
2023/07/13 10:47:21;;;;;;;2.17;1.13;;;;;;;29.85;32.61;100795.25;5040411;28;20096;-78
2023/07/13 10:49:55;;;;;;;3.60;1.08;;;;;;;29.08;33.27;100791.13;5050297;28;20825;-79
2023/07/13 10:52:50;;;;;;;0.68;0.68;;;;;;;27.39;34.86;100807.38;5053141;28;20044;-79
2023/07/13 10:55:50;;;;;;;2.70;1.13;;;;;;;25.70;37.80;100804.56;5050436;28;20041;-79
2023/07/13 10:58:37;;;;;;;1.23;1.10;;;;;;;24.92;39.87;100804.41;5043605;28;20040;-79
2023/07/13 11:01:07;;;;;;;2.28;1.77;;;;;;;25.84;38.63;100809.78;5025926;28;20030;-79
2023/07/13 11:03:58;;;;;;;4.50;1.20;;;;;;;26.56;37.62;100802.88;5052502;28;20036;-80
2023/07/13 11:06:30;;;;;;;2.47;1.08;;;;;;;26.51;37.29;100802.38;5046531;28;20043;-81
2023/07/13 11:09:25;;;;;;;3.08;1.58;;;;;;;26.85;36.69;100811.47;5038963;28;20160;-81
2023/07/13 11:11:51;;;;;;;4.57;1.92;;;;;;;26.14;37.77;100805.03;5039317;28;20137;-78
2023/07/13 11:14:21;;;;;;;3.95;1.05;;;;;;;25.40;39.26;100795.00;5045320;28;20037;-78
2023/07/13 11:16:48;;;;;;;4.80;1.42;;;;;;;25.16;40.28;100809.09;5048010;28;20072;-77
2023/07/13 11:19:16;;;;;;;6.85;1.55;;;;;;;26.16;39.02;100809.31;5044245;28;20053;-78
2023/07/13 11:22:07;;;;;;;2.92;1.13;;;;;;;28.67;35.05;100798.19;5041292;28;20076;-79
2023/07/13 11:24:52;;;;;;;4.90;1.05;;;;;;;29.41;32.85;100804.56;5048541;28;20047;-78
2023/07/13 11:27:35;;;;;;;1.65;0.95;;;;;;;30.47;30.68;100800.59;5062669;28;20052;-79
2023/07/13 11:30:34;;;;;;;5.95;0.98;;;;;;;29.53;31.60;100798.94;5054794;28;20037;-79
2023/07/13 11:33:12;;;;;;;3.35;1.25;;;;;;;29.62;30.95;100804.53;5067019;28;20044;-78
2023/07/13 11:35:47;;;;;;;0.85;0.85;;;;;;;29.78;30.60;100793.25;5047915;28;20045;-78
2023/07/13 11:38:43;;;;;;;2.33;0.93;;;;;;;30.56;29.18;100793.50;5041723;28;20043;-77
2023/07/13 11:41:20;;;;;;;1.42;0.88;;;;;;;31.30;28.71;100792.06;5051891;28;20083;-78
2023/07/13 11:43:51;;;;;;;2.75;1.00;;;;;;;31.38;28.92;100788.63;5049643;28;20040;-78